createdAt,value
2022-12-23T00:01:17.619Z,3.30
2022-12-23T00:03:47.415Z,2.73
2022-12-23T00:06:19.431Z,3.57
2022-12-23T00:15:39.453Z,3.50
2022-12-23T00:18:09.236Z,3.60
2022-12-23T00:20:38.909Z,3.10
2022-12-23T00:23:07.697Z,3.17
2022-12-23T00:25:45.399Z,4.70
2022-12-23T00:28:19.687Z,2.73
2022-12-23T00:30:51.200Z,2.90
2022-12-23T00:33:24.017Z,3.37
2022-12-23T00:35:55.434Z,3.67
2022-12-23T00:38:38.557Z,3.37
2022-12-23T00:41:30.049Z,3.63
2022-12-23T00:44:00.468Z,2.73
2022-12-23T00:46:30.641Z,3.23
2022-12-23T00:49:17.332Z,3.30
2022-12-23T00:51:46.514Z,3.63
2022-12-23T00:54:18.221Z,3.37
2022-12-23T00:56:50.386Z,3.63
2022-12-23T00:59:19.832Z,3.77
2022-12-23T01:02:07.022Z,3.80
2022-12-23T01:04:54.882Z,4.00
2022-12-23T01:07:24.778Z,4.20
2022-12-23T01:09:53.897Z,3.83
2022-12-23T01:12:25.181Z,3.97
2022-12-23T01:14:55.327Z,4.13
2022-12-23T01:17:24.955Z,3.23
2022-12-23T01:19:54.346Z,3.93
2022-12-23T01:22:23.374Z,4.00
2022-12-23T01:24:54.330Z,3.90
2022-12-23T01:27:25.468Z,4.20
2022-12-23T01:29:56.071Z,4.23
2022-12-23T01:32:26.219Z,3.70
2022-12-23T01:34:56.089Z,2.63
2022-12-23T01:37:25.394Z,2.23
2022-12-23T01:39:55.946Z,2.00
2022-12-23T01:42:44.807Z,1.50
2022-12-23T01:45:35.416Z,2.00
2022-12-23T01:48:10.293Z,1.70
2022-12-23T01:50:46.143Z,1.63
2022-12-23T01:53:22.849Z,1.37
2022-12-23T01:55:59.805Z,1.90
2022-12-23T01:58:36.727Z,1.50
2022-12-23T02:01:23.916Z,1.80
2022-12-23T02:03:57.701Z,1.60
2022-12-23T02:06:49.986Z,1.67
2022-12-23T02:09:25.338Z,1.20
2022-12-23T02:12:38.978Z,1.07
2022-12-23T02:15:53.279Z,0.90
2022-12-23T02:18:59.624Z,1.03
2022-12-23T02:21:48.904Z,1.37
2022-12-23T02:25:05.339Z,1.10
2022-12-23T02:27:41.735Z,1.10
2022-12-23T02:30:42.723Z,0.70
2022-12-23T02:33:30.825Z,1.07
2022-12-23T02:36:19.024Z,1.00
2022-12-23T02:39:01.744Z,0.90
2022-12-23T02:41:42.902Z,0.97
2022-12-23T02:44:25.192Z,0.80
2022-12-23T02:47:04.482Z,0.90
2022-12-23T02:49:40.692Z,0.97
2022-12-23T02:52:16.460Z,0.97
2022-12-23T02:54:53.091Z,0.80
2022-12-23T02:57:34.107Z,0.70
2022-12-23T03:00:04.807Z,0.87
2022-12-23T03:02:38.002Z,0.93
2022-12-23T03:05:24.208Z,0.80
2022-12-23T03:08:03.301Z,0.67
2022-12-23T03:10:57.744Z,1.10
2022-12-23T03:13:52.609Z,0.77
2022-12-23T03:16:30.300Z,0.77
2022-12-23T03:19:15.854Z,0.70
2022-12-23T03:21:54.869Z,0.60
2022-12-23T03:24:38.097Z,0.70
2022-12-23T03:27:17.421Z,0.90
2022-12-23T03:29:59.845Z,0.67
2022-12-23T03:32:35.610Z,0.67
2022-12-23T03:35:12.171Z,0.93
2022-12-23T03:37:48.242Z,0.73
2022-12-23T03:40:25.221Z,0.90
2022-12-23T03:43:03.073Z,0.90
2022-12-23T03:45:41.020Z,0.80
2022-12-23T03:48:21.721Z,0.80
2022-12-23T03:51:00.539Z,0.90
2022-12-23T03:53:37.043Z,1.13
2022-12-23T03:56:12.914Z,0.77
2022-12-23T03:58:50.809Z,0.80
2022-12-23T04:01:33.441Z,0.80
2022-12-23T04:04:10.413Z,0.80
2022-12-23T04:06:50.734Z,0.83
2022-12-23T04:09:24.520Z,0.70
2022-12-23T04:11:55.422Z,1.17
2022-12-23T04:14:26.339Z,2.23
2022-12-23T04:16:59.562Z,1.70
2022-12-23T04:19:29.858Z,1.23
2022-12-23T04:22:00.714Z,0.80
2022-12-23T04:24:31.389Z,1.77
2022-12-23T04:27:01.037Z,0.80
2022-12-23T04:29:31.359Z,1.00
2022-12-23T04:32:01.446Z,1.13
2022-12-23T04:34:32.591Z,0.90
2022-12-23T04:37:02.549Z,0.80
2022-12-23T04:39:32.717Z,1.00
2022-12-23T04:42:03.613Z,0.60
2022-12-23T04:44:33.314Z,0.90
2022-12-23T04:47:03.366Z,0.77
2022-12-23T04:49:33.564Z,0.80
2022-12-23T04:52:05.253Z,0.70
2022-12-23T04:54:38.083Z,0.80
2022-12-23T04:57:10.772Z,0.90
2022-12-23T04:59:39.834Z,1.30
2022-12-23T05:02:11.417Z,0.80
2022-12-23T05:04:40.660Z,1.00
2022-12-23T05:07:11.621Z,0.90
2022-12-23T05:09:42.018Z,1.97
2022-12-23T05:12:11.577Z,1.50
2022-12-23T05:14:41.794Z,0.87
2022-12-23T05:17:11.264Z,0.90
2022-12-23T05:19:40.176Z,0.90
2022-12-23T05:22:10.764Z,0.97
2022-12-23T05:24:41.354Z,7.20
2022-12-23T05:27:10.729Z,1.43
2022-12-23T05:29:39.660Z,1.10
2022-12-23T05:32:09.640Z,1.00
2022-12-23T05:34:39.050Z,0.90
2022-12-23T05:37:09.590Z,12.63
2022-12-23T05:39:42.322Z,1.60
2022-12-23T05:42:11.278Z,1.13
2022-12-23T05:44:41.338Z,1.40
2022-12-23T05:47:11.330Z,0.90
2022-12-23T05:49:40.238Z,1.20
2022-12-23T05:52:10.717Z,0.87
2022-12-23T05:54:42.566Z,1.03
2022-12-23T05:57:13.041Z,1.10
2022-12-23T05:59:42.581Z,1.03
2022-12-23T06:02:12.379Z,1.10
2022-12-23T06:04:41.969Z,1.07
2022-12-23T06:07:11.888Z,0.90
2022-12-23T06:09:43.185Z,0.80
2022-12-23T06:12:13.594Z,1.10
2022-12-23T06:14:42.604Z,0.90
2022-12-23T06:17:12.615Z,0.80
2022-12-23T06:19:43.633Z,0.70
2022-12-23T06:22:13.069Z,0.60
2022-12-23T06:24:46.225Z,0.70
2022-12-23T06:27:15.785Z,0.80
2022-12-23T06:29:46.187Z,1.00
2022-12-23T06:32:16.219Z,0.90
2022-12-23T06:34:47.835Z,0.83
2022-12-23T06:37:18.418Z,0.93
2022-12-23T06:39:48.773Z,0.90
2022-12-23T06:42:18.718Z,0.90
2022-12-23T06:44:48.734Z,0.93
2022-12-23T06:47:18.104Z,0.90
2022-12-23T06:49:48.334Z,0.80
2022-12-23T06:52:19.499Z,0.87
2022-12-23T06:54:51.028Z,1.10
2022-12-23T06:57:20.100Z,1.00
2022-12-23T06:59:49.072Z,0.90
2022-12-23T07:02:19.235Z,0.80
2022-12-23T07:04:50.752Z,0.90
2022-12-23T07:07:20.439Z,1.00
2022-12-23T07:09:52.483Z,0.90
2022-12-23T07:12:22.591Z,0.90
2022-12-23T07:14:51.122Z,0.90
2022-12-23T07:17:20.933Z,1.07
2022-12-23T07:19:51.107Z,1.40
2022-12-23T07:22:19.715Z,1.03
2022-12-23T07:24:51.386Z,1.20
2022-12-23T07:27:21.673Z,1.17
2022-12-23T07:29:52.594Z,1.00
2022-12-23T07:32:22.735Z,0.93
2022-12-23T07:34:52.701Z,1.17
2022-12-23T07:37:22.830Z,1.40
2022-12-23T07:39:53.808Z,1.17
2022-12-23T07:45:14.300Z,1.10
2022-12-23T07:47:44.961Z,1.10
2022-12-23T07:50:15.422Z,0.90
2022-12-23T07:52:45.518Z,0.93
2022-12-23T07:55:17.440Z,0.90
2022-12-23T07:57:50.422Z,1.00
2022-12-23T08:00:21.097Z,1.17
2022-12-23T08:02:51.122Z,0.90
2022-12-23T08:05:22.078Z,1.20
2022-12-23T08:07:53.149Z,1.00
2022-12-23T08:10:24.568Z,1.27
2022-12-23T08:12:54.115Z,1.30
2022-12-23T08:15:23.327Z,1.20
2022-12-23T08:17:53.333Z,1.40
2022-12-23T08:20:22.759Z,1.00
2022-12-23T08:22:52.383Z,1.33
2022-12-23T08:25:24.783Z,1.27
2022-12-23T08:27:54.923Z,1.23
2022-12-23T08:30:25.450Z,1.50
2022-12-23T08:32:55.509Z,1.10
2022-12-23T08:35:24.941Z,1.30
2022-12-23T08:37:54.476Z,1.43
2022-12-23T08:40:25.263Z,1.87
2022-12-23T08:42:54.282Z,1.20
2022-12-23T08:45:22.731Z,1.50
2022-12-23T08:47:52.512Z,2.07
2022-12-23T08:50:22.499Z,1.50
2022-12-23T08:52:51.481Z,1.30
2022-12-23T08:55:22.415Z,1.80
2022-12-23T08:57:54.320Z,1.80
2022-12-23T09:00:24.261Z,1.70
2022-12-23T09:02:54.631Z,1.30
2022-12-23T09:05:24.878Z,1.23
2022-12-23T09:07:55.105Z,1.60
2022-12-23T09:10:24.393Z,2.43
2022-12-23T09:12:58.012Z,1.40
2022-12-23T09:15:27.816Z,1.63
2022-12-23T09:17:58.647Z,1.60
2022-12-23T09:20:28.778Z,1.80
2022-12-23T09:22:58.230Z,1.70
2022-12-23T09:25:28.191Z,1.93
2022-12-23T09:27:58.068Z,1.50
2022-12-23T09:30:27.666Z,2.10
2022-12-23T09:32:56.801Z,2.47
2022-12-23T09:35:26.439Z,2.43
2022-12-23T09:37:56.468Z,2.40
2022-12-23T09:40:25.540Z,2.73
2022-12-23T09:43:13.347Z,3.47
2022-12-23T09:46:00.989Z,2.73
2022-12-23T09:48:42.705Z,2.87
2022-12-23T09:51:14.672Z,2.93
2022-12-23T09:53:57.232Z,3.00
2022-12-23T09:56:42.352Z,2.60
2022-12-23T09:59:42.764Z,2.80
2022-12-23T10:02:27.966Z,2.67
2022-12-23T10:05:06.344Z,3.27
2022-12-23T10:07:42.203Z,3.37
2022-12-23T10:10:26.904Z,3.07
2022-12-23T10:12:59.739Z,3.03
2022-12-23T10:15:35.276Z,2.80
2022-12-23T10:18:16.586Z,3.13
2022-12-23T10:20:53.663Z,3.23
2022-12-23T10:23:33.936Z,3.03
2022-12-23T10:26:11.064Z,3.23
2022-12-23T10:28:39.671Z,2.97
2022-12-23T10:31:39.788Z,3.07
2022-12-23T10:34:21.619Z,3.10
2022-12-23T10:37:03.409Z,3.90
2022-12-23T10:39:45.641Z,3.00
2022-12-23T10:42:28.313Z,3.10
2022-12-23T10:45:37.487Z,2.97
2022-12-23T10:48:28.804Z,3.50
2022-12-23T10:51:04.094Z,3.60
2022-12-23T10:53:41.678Z,3.80
2022-12-23T10:56:12.895Z,3.70
2022-12-23T10:58:48.254Z,3.90
2022-12-23T11:01:26.479Z,4.37
2022-12-23T11:04:08.963Z,2.77
2022-12-23T11:06:45.206Z,2.90
2022-12-23T11:09:20.951Z,2.93
2022-12-23T11:12:03.564Z,3.47
2022-12-23T11:14:37.734Z,2.63
2022-12-23T11:17:20.513Z,3.70
2022-12-23T11:20:09.671Z,3.67
2022-12-23T11:22:49.677Z,3.70
2022-12-23T11:25:30.004Z,2.47
2022-12-23T11:28:03.505Z,3.17
2022-12-23T11:30:37.517Z,3.27
2022-12-23T11:33:06.737Z,2.23
2022-12-23T11:35:38.721Z,3.20
2022-12-23T11:38:16.585Z,2.03
2022-12-23T11:40:48.938Z,3.20
2022-12-23T11:43:21.090Z,3.43
2022-12-23T11:46:18.575Z,4.60
2022-12-23T11:48:54.646Z,4.17
2022-12-23T11:51:28.599Z,4.30
2022-12-23T11:54:03.292Z,5.17
2022-12-23T11:56:39.936Z,6.97
2022-12-23T11:59:26.868Z,7.20
2022-12-23T12:01:59.742Z,6.60
2022-12-23T12:04:36.257Z,7.40
2022-12-23T12:07:09.052Z,4.10
2022-12-23T12:09:43.514Z,4.90
2022-12-23T12:12:19.822Z,4.43
2022-12-23T12:14:54.940Z,5.70
2022-12-23T12:17:33.710Z,4.23
2022-12-23T12:20:11.887Z,3.80
2022-12-23T12:22:49.859Z,4.33
2022-12-23T12:25:23.614Z,3.87
2022-12-23T12:28:04.349Z,4.50
2022-12-23T12:30:41.391Z,4.50
2022-12-23T12:33:21.574Z,3.23
2022-12-23T12:36:01.718Z,3.10
2022-12-23T12:38:49.615Z,3.63
2022-12-23T12:41:28.902Z,3.27
2022-12-23T12:44:07.565Z,4.07
2022-12-23T12:46:45.223Z,3.87
2022-12-23T12:49:27.326Z,3.63
2022-12-23T12:52:09.118Z,3.23
2022-12-23T12:54:50.901Z,3.00
2022-12-23T12:57:24.166Z,2.80
2022-12-23T13:00:05.518Z,2.80
2022-12-23T13:03:08.985Z,3.47
2022-12-23T13:06:26.473Z,3.13
2022-12-23T13:09:15.310Z,2.87
2022-12-23T13:11:59.921Z,2.60
2022-12-23T13:14:49.239Z,2.50
2022-12-23T13:17:25.715Z,3.77
2022-12-23T13:20:11.244Z,3.83
2022-12-23T13:22:41.770Z,4.13
2022-12-23T13:25:22.162Z,4.33
2022-12-23T13:27:59.004Z,4.27
2022-12-23T13:30:38.492Z,4.10
2022-12-23T13:33:27.755Z,4.13
2022-12-23T13:36:14.390Z,3.97
2022-12-23T13:39:09.700Z,3.80
2022-12-23T13:41:44.895Z,3.60
2022-12-23T13:44:16.233Z,3.57
2022-12-23T13:46:59.230Z,4.00
2022-12-23T13:49:56.989Z,5.10
2022-12-23T13:52:47.721Z,5.23
2022-12-23T13:55:38.665Z,8.23
2022-12-23T13:58:16.434Z,7.60
2022-12-23T14:00:47.616Z,6.33
2022-12-23T14:03:26.672Z,1.57
2022-12-23T14:05:56.686Z,4.37
2022-12-23T14:08:40.922Z,6.30
2022-12-23T14:11:18.884Z,5.83
2022-12-23T14:13:58.903Z,4.90
2022-12-23T14:16:48.612Z,5.83
2022-12-23T14:20:11.618Z,2.90
2022-12-23T14:22:59.799Z,3.00
2022-12-23T14:25:55.430Z,5.30
2022-12-23T14:28:54.096Z,3.90
2022-12-23T14:31:39.286Z,2.33
2022-12-23T14:34:27.972Z,2.17
2022-12-23T14:37:36.080Z,2.53
2022-12-23T14:41:14.967Z,2.10
2022-12-23T14:44:18.974Z,2.60
2022-12-23T14:47:00.342Z,1.30
2022-12-23T14:49:43.967Z,1.40
2022-12-23T14:53:00.955Z,1.10
2022-12-23T14:55:46.773Z,1.87
2022-12-23T14:58:54.850Z,1.70
2022-12-23T15:01:34.855Z,1.40
2022-12-23T15:04:19.688Z,1.50
2022-12-23T15:06:55.598Z,1.17
2022-12-23T15:09:31.103Z,1.43
2022-12-23T15:12:03.962Z,1.60
2022-12-23T15:14:37.192Z,1.60
2022-12-23T15:17:25.760Z,1.60
2022-12-23T15:20:06.388Z,2.00
2022-12-23T15:22:36.966Z,1.83
2022-12-23T15:25:20.700Z,1.30
2022-12-23T15:27:51.215Z,1.23
2022-12-23T15:30:24.942Z,1.00
2022-12-23T15:33:01.816Z,0.93
2022-12-23T15:35:39.222Z,1.10
2022-12-23T15:38:08.681Z,0.90
2022-12-23T15:40:40.868Z,0.80
2022-12-23T15:43:21.575Z,1.10
2022-12-23T15:45:50.592Z,0.90
2022-12-23T15:48:30.348Z,0.80
2022-12-23T15:51:05.950Z,0.93
2022-12-23T15:53:40.913Z,1.00
2022-12-23T15:56:20.199Z,0.70
2022-12-23T15:58:51.425Z,1.10
2022-12-23T16:01:23.067Z,0.80
2022-12-23T16:03:55.344Z,1.10
2022-12-23T16:06:32.718Z,0.90
2022-12-23T16:09:06.183Z,0.90
2022-12-23T16:11:52.030Z,1.13
2022-12-23T16:14:33.847Z,1.40
2022-12-23T16:17:16.103Z,1.00
2022-12-23T16:19:49.307Z,1.00
2022-12-23T16:22:33.135Z,0.90
2022-12-23T16:25:12.196Z,1.00
2022-12-23T16:27:45.854Z,1.10
2022-12-23T16:30:20.692Z,0.93
2022-12-23T16:32:55.347Z,0.80
2022-12-23T16:35:39.066Z,1.10
2022-12-23T16:38:20.042Z,0.80
2022-12-23T16:40:52.367Z,1.20
2022-12-23T16:43:25.301Z,1.13
2022-12-23T16:45:58.411Z,1.10
2022-12-23T16:48:32.521Z,1.17
2022-12-23T16:51:05.771Z,0.90
2022-12-23T16:53:37.802Z,0.90
2022-12-23T16:56:14.171Z,0.90
2022-12-23T16:58:43.797Z,1.00
2022-12-23T17:01:18.120Z,0.83
2022-12-23T17:03:49.323Z,1.00
2022-12-23T17:06:20.289Z,2.60
2022-12-23T17:08:51.935Z,1.20
2022-12-23T17:11:27.366Z,1.10
2022-12-23T17:14:03.480Z,1.30
2022-12-23T17:16:37.180Z,0.93
2022-12-23T17:19:07.196Z,1.07
2022-12-23T17:21:39.718Z,0.90
2022-12-23T17:24:19.125Z,1.00
2022-12-23T17:26:49.755Z,1.37
2022-12-23T17:29:20.677Z,1.10
2022-12-23T17:31:51.865Z,1.10
2022-12-23T17:34:23.467Z,1.00
2022-12-23T17:36:53.194Z,1.20
2022-12-23T17:39:25.593Z,1.10
2022-12-23T17:41:54.623Z,1.10
2022-12-23T17:44:24.633Z,1.50
2022-12-23T17:46:54.945Z,1.20
2022-12-23T17:49:23.844Z,1.57
2022-12-23T17:51:53.562Z,1.40
2022-12-23T17:54:27.445Z,7.50
2022-12-23T17:56:55.985Z,1.87
2022-12-23T17:59:26.828Z,1.83
2022-12-23T18:01:55.505Z,2.00
2022-12-23T18:04:25.173Z,1.40
2022-12-23T18:06:55.332Z,2.03
2022-12-23T18:09:26.710Z,1.70
2022-12-23T18:11:56.428Z,2.00
2022-12-23T18:14:31.919Z,1.60
2022-12-23T18:17:02.689Z,1.70
2022-12-23T18:19:33.343Z,1.70
2022-12-23T18:22:03.914Z,1.20
2022-12-23T18:24:34.557Z,1.20
2022-12-23T18:27:11.154Z,1.20
2022-12-23T18:29:40.669Z,1.20
2022-12-23T18:32:15.242Z,1.33
2022-12-23T18:34:45.148Z,1.40
2022-12-23T18:37:16.946Z,1.80
2022-12-23T18:39:49.765Z,1.70
2022-12-23T18:42:21.428Z,1.70
2022-12-23T18:44:50.236Z,1.50
2022-12-23T18:47:19.332Z,2.20
2022-12-23T18:49:49.885Z,1.90
2022-12-23T18:52:20.016Z,1.77
2022-12-23T18:54:54.164Z,1.73
2022-12-23T18:57:23.245Z,1.80
2022-12-23T18:59:53.294Z,1.60
2022-12-23T19:02:22.666Z,1.93
2022-12-23T19:04:52.357Z,1.90
2022-12-23T19:07:21.964Z,1.60
2022-12-23T19:09:54.007Z,1.80
2022-12-23T19:12:23.939Z,2.13
2022-12-23T19:14:53.095Z,1.90
2022-12-23T19:17:22.706Z,2.23
2022-12-23T19:19:52.392Z,1.97
2022-12-23T19:22:22.291Z,2.77
2022-12-23T19:25:05.259Z,8.80
2022-12-23T19:27:35.709Z,2.70
2022-12-23T19:30:07.261Z,6.90
2022-12-23T19:32:36.724Z,6.87
2022-12-23T19:35:07.642Z,4.00
2022-12-23T19:37:36.422Z,1.97
2022-12-23T19:40:10.931Z,2.40
2022-12-23T19:42:40.609Z,2.67
2022-12-23T19:45:12.212Z,2.17
2022-12-23T19:47:42.869Z,2.00
2022-12-23T19:50:14.113Z,1.90
2022-12-23T19:52:42.749Z,1.83
2022-12-23T19:55:16.475Z,2.33
2022-12-23T19:57:45.342Z,2.03
2022-12-23T20:00:16.790Z,2.27
2022-12-23T20:02:46.947Z,2.10
2022-12-23T20:05:16.047Z,2.20
2022-12-23T20:07:45.873Z,1.93
2022-12-23T20:10:18.735Z,2.30
2022-12-23T20:12:49.440Z,1.90
2022-12-23T20:15:19.516Z,2.30
2022-12-23T20:17:51.263Z,2.67
2022-12-23T20:20:20.424Z,1.53
2022-12-23T20:22:50.828Z,2.00
2022-12-23T20:25:21.304Z,2.00
2022-12-23T20:27:51.784Z,2.10
2022-12-23T20:30:21.637Z,2.60
2022-12-23T20:32:51.114Z,2.97
2022-12-23T20:35:19.498Z,2.40
2022-12-23T20:37:48.852Z,2.10
2022-12-23T20:40:20.321Z,2.20
2022-12-23T20:42:50.498Z,2.50
2022-12-23T20:45:21.572Z,2.20
2022-12-23T20:47:52.859Z,2.30
2022-12-23T20:50:22.310Z,2.40
2022-12-23T20:52:51.369Z,2.50
2022-12-23T20:55:23.471Z,2.80
2022-12-23T20:57:52.898Z,2.53
2022-12-23T21:00:24.095Z,2.13
2022-12-23T21:02:54.369Z,2.20
2022-12-23T21:05:23.246Z,2.67
2022-12-23T21:07:51.612Z,3.13
2022-12-23T21:10:21.927Z,2.50
2022-12-23T21:12:51.506Z,2.70
2022-12-23T21:15:22.853Z,2.87
2022-12-23T21:17:52.368Z,2.80
2022-12-23T21:20:22.508Z,2.40
2022-12-23T21:22:51.461Z,2.90
2022-12-23T21:25:21.797Z,2.90
2022-12-23T21:27:53.202Z,2.80
2022-12-23T21:30:23.926Z,2.10
2022-12-23T21:33:00.797Z,2.90
2022-12-23T21:35:29.932Z,3.00
2022-12-23T21:37:59.819Z,2.73
2022-12-23T21:40:30.205Z,2.40
2022-12-23T21:43:01.689Z,1.90
2022-12-23T21:45:33.066Z,2.10
2022-12-23T21:48:04.129Z,2.40
2022-12-23T21:50:36.011Z,3.07
2022-12-23T21:53:06.154Z,2.93
2022-12-23T21:55:39.161Z,2.70
2022-12-23T21:58:09.384Z,2.40
2022-12-23T22:00:38.724Z,2.40
2022-12-23T22:03:08.321Z,2.83
2022-12-23T22:05:36.794Z,1.90
2022-12-23T22:08:07.701Z,2.57
2022-12-23T22:10:40.733Z,2.73
2022-12-23T22:13:10.743Z,1.80
2022-12-23T22:15:43.117Z,2.20
2022-12-23T22:18:11.670Z,3.07
2022-12-23T22:20:46.393Z,3.07
2022-12-23T22:23:17.260Z,2.43
2022-12-23T22:25:56.129Z,2.10
2022-12-23T22:28:25.455Z,3.40
2022-12-23T22:30:55.509Z,2.20
2022-12-23T22:33:26.233Z,2.80
2022-12-23T22:35:57.551Z,2.20
2022-12-23T22:38:27.967Z,3.20
2022-12-23T22:40:59.505Z,2.63
2022-12-23T22:43:30.701Z,3.03
2022-12-23T22:46:01.636Z,2.17
2022-12-23T22:48:32.389Z,2.20
2022-12-23T22:51:06.063Z,2.43
2022-12-23T22:53:35.702Z,1.97
2022-12-23T22:56:06.731Z,1.63
2022-12-23T22:58:36.540Z,2.90
2022-12-23T23:01:07.544Z,2.20
2022-12-23T23:03:38.030Z,2.13
2022-12-23T23:06:08.861Z,2.43
2022-12-23T23:08:38.655Z,2.30
2022-12-23T23:11:09.518Z,2.53
2022-12-23T23:13:38.932Z,2.97
2022-12-23T23:16:09.757Z,2.10
2022-12-23T23:18:40.076Z,2.10
2022-12-23T23:21:10.173Z,2.47
2022-12-23T23:23:39.816Z,2.07
2022-12-23T23:26:11.233Z,2.27
2022-12-23T23:28:40.463Z,2.20
2022-12-23T23:31:40.459Z,2.60
2022-12-23T23:33:59.421Z,2.50
2022-12-23T23:36:29.083Z,3.00
2022-12-23T23:38:58.523Z,3.40
2022-12-23T23:41:29.960Z,1.93
2022-12-23T23:44:00.483Z,2.33
2022-12-23T23:46:31.968Z,2.77
2022-12-23T23:49:02.612Z,2.60
2022-12-23T23:51:32.839Z,2.07
2022-12-23T23:54:03.123Z,2.80
2022-12-23T23:56:38.823Z,2.87
2022-12-23T23:59:10.425Z,2.40
